Time;durP1;ratioP1;P1;durP2;ratioP2;P2;SDS_P1;SDS_P2;PMS_P1;PMS_P2;Temp;Humidity;BMP_temperature;BMP_pressure;BME280_temperature;BME280_humidity;BME280_pressure;Samples;Min_cycle;Max_cycle;Signal;HPM_P1;HPM_P2
2022/08/29 00:01:34;;;;;;;35.70;7.88;;;;;;;;;;4994552;28;20038;-44
2022/08/29 00:04:01;;;;;;;45.60;8.55;;;;;;;;;;5010850;28;20025;-50
2022/08/29 00:06:28;;;;;;;40.30;7.30;;;;;;;;;;5013975;28;20021;-49
2022/08/29 00:08:55;;;;;;;32.30;7.28;;;;;;;;;;5013925;28;20022;-45
2022/08/29 00:11:22;;;;;;;40.00;7.78;;;;;;;;;;5002833;28;20380;-48
2022/08/29 00:13:49;;;;;;;43.80;8.35;;;;;;;;;;5006692;28;20523;-49
2022/08/29 00:16:17;;;;;;;42.45;7.38;;;;;;;;;;5007858;28;20375;-53
2022/08/29 00:18:44;;;;;;;36.55;6.68;;;;;;;;;;5012499;28;20030;-53
2022/08/29 00:21:11;;;;;;;27.05;6.40;;;;;;;;;;5011009;28;20049;-56
2022/08/29 00:23:38;;;;;;;39.83;6.40;;;;;;;;;;5012224;28;20026;-54
2022/08/29 00:26:06;;;;;;;30.30;7.07;;;;;;;;;;5012625;28;20033;-57
2022/08/29 00:28:33;;;;;;;31.15;6.45;;;;;;;;;;5012678;28;20022;-55
2022/08/29 00:31:00;;;;;;;33.08;6.32;;;;;;;;;;5010877;28;20357;-51
2022/08/29 00:33:27;;;;;;;32.40;6.40;;;;;;;;;;5011204;28;20515;-53
2022/08/29 00:35:54;;;;;;;31.38;6.80;;;;;;;;;;5012233;28;20045;-44
2022/08/29 00:38:21;;;;;;;39.05;7.47;;;;;;;;;;5011604;28;20076;-57
2022/08/29 00:40:53;;;;;;;34.40;6.28;;;;;;;;;;5011604;28;20034;-50
2022/08/29 00:43:23;;;;;;;29.23;5.80;;;;;;;;;;5011129;28;20037;-49
2022/08/29 00:46:00;;;;;;;34.30;7.03;;;;;;;;;;5010635;28;20022;-53
2022/08/29 00:48:28;;;;;;;48.13;6.78;;;;;;;;;;5012353;28;20030;-47
2022/08/29 00:50:57;;;;;;;37.75;6.90;;;;;;;;;;5010381;28;20029;-53
2022/08/29 00:53:31;;;;;;;43.47;6.65;;;;;;;;;;5008420;28;20032;-51
2022/08/29 00:55:59;;;;;;;36.75;6.80;;;;;;;;;;5011830;28;20029;-51
2022/08/29 00:58:31;;;;;;;42.90;6.45;;;;;;;;;;5008176;28;20026;-55
2022/08/29 01:00:58;;;;;;;36.38;6.28;;;;;;;;;;4994533;28;20065;-57
2022/08/29 01:03:25;;;;;;;28.15;5.45;;;;;;;;;;5006065;28;20025;-52
2022/08/29 01:05:53;;;;;;;32.67;5.82;;;;;;;;;;5002470;28;20026;-46
2022/08/29 01:08:20;;;;;;;40.28;6.07;;;;;;;;;;5003044;28;20022;-46
2022/08/29 01:13:36;;;;;;;29.75;6.45;;;;;;;;;;5010882;28;20073;-49
2022/08/29 01:16:03;;;;;;;29.08;5.72;;;;;;;;;;4993718;28;20030;-51
2022/08/29 01:18:35;;;;;;;33.55;5.47;;;;;;;;;;4992599;28;20077;-48
2022/08/29 01:21:08;;;;;;;34.77;5.97;;;;;;;;;;5003332;28;20046;-50
2022/08/29 01:23:40;;;;;;;23.58;5.32;;;;;;;;;;5009908;28;20276;-51
2022/08/29 01:26:09;;;;;;;28.67;5.32;;;;;;;;;;5009191;28;20046;-52
2022/08/29 01:28:39;;;;;;;29.25;6.30;;;;;;;;;;5010332;28;20510;-57
2022/08/29 01:31:09;;;;;;;28.98;6.80;;;;;;;;;;5009594;28;20034;-55
2022/08/29 01:33:42;;;;;;;44.13;9.48;;;;;;;;;;5010025;28;20029;-58
2022/08/29 01:36:10;;;;;;;35.25;10.15;;;;;;;;;;5009924;28;20344;-57
2022/08/29 01:38:37;;;;;;;51.80;12.43;;;;;;;;;;5009527;28;21394;-57
2022/08/29 01:41:05;;;;;;;80.43;20.83;;;;;;;;;;5009157;28;20466;-61
2022/08/29 01:43:38;;;;;;;85.57;22.65;;;;;;;;;;5009849;28;20034;-53
2022/08/29 01:46:05;;;;;;;95.95;23.63;;;;;;;;;;5008133;28;20045;-58
2022/08/29 01:48:32;;;;;;;74.90;21.02;;;;;;;;;;5010465;28;20022;-54
2022/08/29 01:50:59;;;;;;;74.25;20.77;;;;;;;;;;5010463;28;20033;-58
2022/08/29 01:53:26;;;;;;;73.70;20.42;;;;;;;;;;5010467;28;20472;-54
2022/08/29 01:55:53;;;;;;;82.88;21.73;;;;;;;;;;5009572;28;20030;-57
2022/08/29 01:58:20;;;;;;;78.18;20.63;;;;;;;;;;5009293;28;20464;-53
2022/08/29 02:00:47;;;;;;;72.30;19.77;;;;;;;;;;5008764;28;20484;-54
2022/08/29 02:03:14;;;;;;;70.05;20.55;;;;;;;;;;5006325;28;20062;-54
2022/08/29 02:05:41;;;;;;;64.82;19.52;;;;;;;;;;4995865;28;20025;-51
2022/08/29 02:08:08;;;;;;;73.45;19.15;;;;;;;;;;5008094;28;20022;-48
2022/08/29 02:10:35;;;;;;;70.88;17.98;;;;;;;;;;5006972;28;20578;-50
2022/08/29 02:13:02;;;;;;;69.55;17.38;;;;;;;;;;4991176;28;20068;-56
2022/08/29 02:15:29;;;;;;;64.95;16.85;;;;;;;;;;4991083;28;20038;-55
2022/08/29 02:17:56;;;;;;;60.63;16.58;;;;;;;;;;4990937;28;20465;-57
2022/08/29 02:20:23;;;;;;;64.10;17.73;;;;;;;;;;4986067;28;20061;-56
2022/08/29 02:22:50;;;;;;;56.50;16.42;;;;;;;;;;4978393;28;20058;-58
2022/08/29 02:28:03;;;;;;;63.47;15.80;;;;;;;;;;4982293;28;20397;-58
2022/08/29 02:30:30;;;;;;;62.00;16.75;;;;;;;;;;4979936;28;20026;-59
2022/08/29 02:32:57;;;;;;;57.45;15.32;;;;;;;;;;4978699;28;20118;-58
2022/08/29 02:35:24;;;;;;;46.92;14.52;;;;;;;;;;4978570;28;20036;-57
2022/08/29 02:37:52;;;;;;;53.10;15.07;;;;;;;;;;4985552;28;20396;-58
2022/08/29 02:40:19;;;;;;;51.63;14.32;;;;;;;;;;4985530;28;20385;-58
2022/08/29 02:42:46;;;;;;;54.28;13.98;;;;;;;;;;4984388;28;20088;-59
2022/08/29 02:45:13;;;;;;;57.35;14.95;;;;;;;;;;4985644;28;20026;-56
2022/08/29 02:47:40;;;;;;;45.05;12.93;;;;;;;;;;4984423;28;20158;-59
2022/08/29 02:50:10;;;;;;;49.67;14.02;;;;;;;;;;4984257;28;20060;-58
2022/08/29 02:52:40;;;;;;;38.53;12.88;;;;;;;;;;4985968;28;20108;-57
2022/08/29 02:55:08;;;;;;;44.00;13.05;;;;;;;;;;4985510;28;20488;-55
2022/08/29 02:57:35;;;;;;;44.53;12.80;;;;;;;;;;4983822;28;20023;-58
2022/08/29 03:00:03;;;;;;;41.97;12.95;;;;;;;;;;4984798;28;20033;-59
2022/08/29 03:02:30;;;;;;;38.90;12.77;;;;;;;;;;4985740;28;20113;-58
2022/08/29 03:04:58;;;;;;;37.35;12.20;;;;;;;;;;4985606;28;20072;-58
2022/08/29 03:07:26;;;;;;;36.65;11.70;;;;;;;;;;4983968;28;20031;-59
2022/08/29 03:09:53;;;;;;;28.35;10.10;;;;;;;;;;4984237;28;20023;-59
2022/08/29 03:12:20;;;;;;;36.00;12.02;;;;;;;;;;4985374;28;20031;-59
2022/08/29 03:14:47;;;;;;;40.03;11.95;;;;;;;;;;4985091;28;20500;-58
2022/08/29 03:17:14;;;;;;;35.22;10.85;;;;;;;;;;4984521;28;20121;-58
2022/08/29 03:19:41;;;;;;;34.40;10.20;;;;;;;;;;4980451;28;20038;-58
2022/08/29 03:22:08;;;;;;;35.42;9.98;;;;;;;;;;4975766;28;20045;-59
2022/08/29 03:24:36;;;;;;;31.55;9.85;;;;;;;;;;4975487;28;20456;-58
2022/08/29 03:27:03;;;;;;;30.13;9.80;;;;;;;;;;4975274;28;20374;-58
2022/08/29 03:29:30;;;;;;;31.00;10.07;;;;;;;;;;4975454;28;20480;-55
2022/08/29 03:31:58;;;;;;;26.38;9.18;;;;;;;;;;4975541;28;20089;-58
2022/08/29 03:34:26;;;;;;;27.58;10.10;;;;;;;;;;4975754;28;20037;-57
2022/08/29 03:36:53;;;;;;;30.08;9.35;;;;;;;;;;4975767;28;20033;-58
2022/08/29 03:39:21;;;;;;;27.77;8.98;;;;;;;;;;4975795;28;20030;-58
2022/08/29 03:41:47;;;;;;;28.52;9.93;;;;;;;;;;4975747;28;20035;-59
2022/08/29 03:44:15;;;;;;;25.92;8.93;;;;;;;;;;4975716;28;20848;-56
2022/08/29 03:46:42;;;;;;;27.80;8.35;;;;;;;;;;4975290;28;20102;-59
2022/08/29 03:49:09;;;;;;;20.67;7.38;;;;;;;;;;4975116;28;20035;-58
2022/08/29 03:51:38;;;;;;;19.90;7.85;;;;;;;;;;4975396;28;20065;-58
2022/08/29 03:54:05;;;;;;;22.77;8.05;;;;;;;;;;4975468;28;20074;-58
2022/08/29 03:56:33;;;;;;;20.13;7.35;;;;;;;;;;4975575;28;20446;-52
2022/08/29 03:59:00;;;;;;;23.10;7.45;;;;;;;;;;4975361;28;20030;-59
2022/08/29 04:01:28;;;;;;;21.95;7.43;;;;;;;;;;4975444;28;20460;-56
2022/08/29 04:03:56;;;;;;;22.63;7.72;;;;;;;;;;4975172;28;20750;-58
2022/08/29 04:06:24;;;;;;;19.10;6.45;;;;;;;;;;4975212;28;20031;-58
2022/08/29 04:08:52;;;;;;;20.25;7.07;;;;;;;;;;4975078;28;20404;-58
2022/08/29 04:11:19;;;;;;;20.42;7.07;;;;;;;;;;4975025;28;20485;-57
2022/08/29 04:13:47;;;;;;;21.48;6.47;;;;;;;;;;4975074;28;20485;-58
2022/08/29 04:16:19;;;;;;;19.35;6.63;;;;;;;;;;4974947;28;20113;-57
2022/08/29 04:18:45;;;;;;;19.63;5.97;;;;;;;;;;4973632;28;20038;-57
2022/08/29 04:21:14;;;;;;;16.38;6.20;;;;;;;;;;4974498;28;20390;-56
2022/08/29 04:23:41;;;;;;;21.40;6.75;;;;;;;;;;4974656;28;20043;-58
2022/08/29 04:26:19;;;;;;;15.65;5.97;;;;;;;;;;4974696;28;20033;-57
2022/08/29 04:28:46;;;;;;;20.15;6.47;;;;;;;;;;4974731;28;20026;-58
2022/08/29 04:31:18;;;;;;;15.98;5.90;;;;;;;;;;4974822;28;20031;-58
2022/08/29 04:33:46;;;;;;;17.85;5.68;;;;;;;;;;4974535;28;20048;-56
2022/08/29 04:36:14;;;;;;;17.90;5.65;;;;;;;;;;4974317;28;20390;-55
2022/08/29 04:38:41;;;;;;;16.02;5.85;;;;;;;;;;4974609;28;20823;-56
2022/08/29 04:41:09;;;;;;;14.50;5.65;;;;;;;;;;4974683;28;20401;-58
2022/08/29 04:43:36;;;;;;;12.80;4.80;;;;;;;;;;4974242;28;20073;-58
2022/08/29 04:46:03;;;;;;;13.02;4.65;;;;;;;;;;4974339;28;20034;-56
2022/08/29 04:48:30;;;;;;;16.67;5.70;;;;;;;;;;4974493;28;20041;-55
2022/08/29 04:50:57;;;;;;;14.80;4.63;;;;;;;;;;4974431;28;20521;-57
2022/08/29 04:53:25;;;;;;;13.05;5.03;;;;;;;;;;4974281;28;20027;-58
2022/08/29 04:55:59;;;;;;;13.68;5.18;;;;;;;;;;4974306;28;20035;-58
2022/08/29 04:58:26;;;;;;;12.85;5.05;;;;;;;;;;4974224;28;20027;-58
2022/08/29 05:00:54;;;;;;;14.95;4.88;;;;;;;;;;4974078;28;20034;-55
2022/08/29 05:03:21;;;;;;;15.20;5.30;;;;;;;;;;4974178;28;20037;-58
2022/08/29 05:06:02;;;;;;;13.60;4.35;;;;;;;;;;4973976;28;20409;-58
2022/08/29 05:08:30;;;;;;;13.25;4.82;;;;;;;;;;4974040;28;20396;-58
2022/08/29 05:10:57;;;;;;;11.98;4.55;;;;;;;;;;4974099;28;20611;-58
2022/08/29 05:13:24;;;;;;;10.95;4.13;;;;;;;;;;4974120;28;20035;-58
2022/08/29 05:15:51;;;;;;;10.98;4.55;;;;;;;;;;4973804;28;20023;-56
2022/08/29 05:18:18;;;;;;;11.52;4.20;;;;;;;;;;4974008;28;20113;-58
2022/08/29 05:20:47;;;;;;;11.07;4.53;;;;;;;;;;4973657;28;20057;-56
2022/08/29 05:23:15;;;;;;;10.52;4.28;;;;;;;;;;4973845;28;20027;-58
2022/08/29 05:25:43;;;;;;;11.77;4.30;;;;;;;;;;4973828;28;20038;-57
2022/08/29 05:28:11;;;;;;;11.15;3.95;;;;;;;;;;4973946;28;20042;-58
2022/08/29 05:30:38;;;;;;;10.35;4.28;;;;;;;;;;4973628;28;20039;-57
2022/08/29 05:33:06;;;;;;;10.57;4.05;;;;;;;;;;4973824;28;20031;-59
2022/08/29 05:35:34;;;;;;;9.57;3.75;;;;;;;;;;4973833;28;20106;-58
2022/08/29 05:38:04;;;;;;;9.10;3.40;;;;;;;;;;4973754;28;20488;-57
2022/08/29 05:40:31;;;;;;;8.35;3.80;;;;;;;;;;4973623;28;20512;-56
2022/08/29 05:42:58;;;;;;;10.73;3.53;;;;;;;;;;4973679;28;20031;-58
2022/08/29 05:45:25;;;;;;;8.02;3.67;;;;;;;;;;4973653;28;20397;-56
2022/08/29 05:47:52;;;;;;;8.75;3.50;;;;;;;;;;4973637;28;20493;-58
2022/08/29 05:50:19;;;;;;;8.93;3.53;;;;;;;;;;4973677;28;20058;-54
2022/08/29 05:52:46;;;;;;;8.75;3.53;;;;;;;;;;4973657;28;20030;-54
2022/08/29 05:55:13;;;;;;;9.48;3.88;;;;;;;;;;4973497;28;20108;-57
2022/08/29 05:57:40;;;;;;;8.25;2.95;;;;;;;;;;4973585;28;20026;-57
2022/08/29 06:00:08;;;;;;;9.88;3.53;;;;;;;;;;4973466;28;20077;-57
2022/08/29 06:02:35;;;;;;;10.32;3.28;;;;;;;;;;4986909;28;20034;-56
2022/08/29 06:05:03;;;;;;;8.07;3.00;;;;;;;;;;4992880;28;20030;-55
2022/08/29 06:07:31;;;;;;;6.00;2.92;;;;;;;;;;4992251;28;20117;-56
2022/08/29 06:09:59;;;;;;;6.78;2.90;;;;;;;;;;4992283;28;20034;-58
2022/08/29 06:12:26;;;;;;;7.72;2.58;;;;;;;;;;4996230;28;20434;-57
2022/08/29 06:14:53;;;;;;;8.05;2.78;;;;;;;;;;4996733;28;20033;-58
2022/08/29 06:17:20;;;;;;;7.53;2.97;;;;;;;;;;4996694;28;20031;-58
2022/08/29 06:19:49;;;;;;;6.35;2.63;;;;;;;;;;4996261;28;20119;-58
2022/08/29 06:22:18;;;;;;;7.78;2.80;;;;;;;;;;4996465;28;20034;-58
2022/08/29 06:24:45;;;;;;;7.93;2.97;;;;;;;;;;4996624;28;20113;-55
2022/08/29 06:27:13;;;;;;;6.72;2.80;;;;;;;;;;4996206;28;20022;-56
2022/08/29 06:29:40;;;;;;;7.97;2.50;;;;;;;;;;4996308;28;20038;-57
2022/08/29 06:32:07;;;;;;;9.15;2.80;;;;;;;;;;4996385;28;20101;-58
2022/08/29 06:34:34;;;;;;;7.28;2.22;;;;;;;;;;4996256;28;20500;-56
2022/08/29 06:37:01;;;;;;;7.97;2.88;;;;;;;;;;4996200;28;20540;-58
2022/08/29 06:39:28;;;;;;;7.28;2.78;;;;;;;;;;4996096;28;20392;-59
2022/08/29 06:41:55;;;;;;;5.57;2.53;;;;;;;;;;4995685;28;20038;-56
2022/08/29 06:44:22;;;;;;;6.13;2.28;;;;;;;;;;4996083;28;20027;-56
2022/08/29 06:46:50;;;;;;;4.95;2.00;;;;;;;;;;4996175;28;20030;-58
2022/08/29 06:49:17;;;;;;;5.43;2.47;;;;;;;;;;4996015;28;20030;-57
2022/08/29 06:51:48;;;;;;;5.78;2.10;;;;;;;;;;4996123;28;20031;-58
2022/08/29 06:54:16;;;;;;;5.43;2.20;;;;;;;;;;4995922;28;20038;-57
2022/08/29 06:56:43;;;;;;;6.93;2.00;;;;;;;;;;4995860;28;20031;-58
2022/08/29 06:59:10;;;;;;;5.80;1.90;;;;;;;;;;4996099;28;20085;-58
2022/08/29 07:01:37;;;;;;;6.72;1.90;;;;;;;;;;4995769;28;20038;-58
2022/08/29 07:04:04;;;;;;;4.55;1.92;;;;;;;;;;4995755;28;20455;-56
2022/08/29 07:06:31;;;;;;;7.53;2.17;;;;;;;;;;4995655;28;20057;-58
2022/08/29 07:08:58;;;;;;;5.03;1.63;;;;;;;;;;4995690;28;20444;-58
2022/08/29 07:11:26;;;;;;;6.97;1.65;;;;;;;;;;4995869;28;20547;-58
2022/08/29 07:13:56;;;;;;;7.57;2.42;;;;;;;;;;4995562;28;20105;-58
2022/08/29 07:16:22;;;;;;;6.40;2.20;;;;;;;;;;4995134;28;20110;-58
2022/08/29 07:18:50;;;;;;;6.20;1.50;;;;;;;;;;4995308;28;20069;-56
2022/08/29 07:21:18;;;;;;;6.50;1.95;;;;;;;;;;4995387;28;20046;-57
2022/08/29 07:23:45;;;;;;;4.05;1.67;;;;;;;;;;4994262;28;20084;-55
2022/08/29 07:26:13;;;;;;;5.38;1.80;;;;;;;;;;4995462;28;20041;-56
2022/08/29 07:28:40;;;;;;;4.78;1.70;;;;;;;;;;4995488;28;20102;-57
2022/08/29 07:31:07;;;;;;;5.85;2.05;;;;;;;;;;4995576;28;20391;-57
2022/08/29 07:33:35;;;;;;;6.03;1.52;;;;;;;;;;4995389;28;20026;-55
2022/08/29 07:36:04;;;;;;;6.45;1.67;;;;;;;;;;4995295;28;20073;-57
2022/08/29 07:38:31;;;;;;;3.72;1.33;;;;;;;;;;4995235;28;20125;-58
2022/08/29 07:40:59;;;;;;;4.95;1.33;;;;;;;;;;4995123;28;20093;-57
2022/08/29 07:43:26;;;;;;;4.10;1.38;;;;;;;;;;4995126;28;20440;-58
2022/08/29 07:45:53;;;;;;;5.88;1.42;;;;;;;;;;4995138;28;20503;-57
2022/08/29 07:48:21;;;;;;;4.72;1.60;;;;;;;;;;4994973;28;20528;-58
2022/08/29 07:50:48;;;;;;;3.38;1.20;;;;;;;;;;4995164;28;20109;-56
2022/08/29 07:53:16;;;;;;;3.53;1.25;;;;;;;;;;4994911;28;20061;-58
2022/08/29 07:55:43;;;;;;;7.60;1.40;;;;;;;;;;4994874;28;20445;-56
2022/08/29 07:58:10;;;;;;;4.57;1.55;;;;;;;;;;4994984;28;20385;-57
2022/08/29 08:00:37;;;;;;;5.07;1.25;;;;;;;;;;4994563;28;20550;-58
2022/08/29 08:03:04;;;;;;;8.63;1.73;;;;;;;;;;4994852;28;20034;-57
2022/08/29 08:05:31;;;;;;;3.03;1.20;;;;;;;;;;4994742;28;20077;-58
2022/08/29 08:07:58;;;;;;;3.88;1.40;;;;;;;;;;4994518;28;20038;-58
2022/08/29 08:10:26;;;;;;;2.95;1.17;;;;;;;;;;4994733;28;20489;-55
2022/08/29 08:12:53;;;;;;;3.63;1.23;;;;;;;;;;4994499;28;20507;-57
2022/08/29 08:15:21;;;;;;;2.90;1.20;;;;;;;;;;4994723;28;20033;-57
2022/08/29 08:17:48;;;;;;;3.05;1.05;;;;;;;;;;4994577;28;20038;-59
2022/08/29 08:20:15;;;;;;;4.28;1.30;;;;;;;;;;4994183;28;20034;-57
2022/08/29 08:22:42;;;;;;;4.13;1.27;;;;;;;;;;4994284;28;20034;-57
2022/08/29 08:25:09;;;;;;;3.67;1.10;;;;;;;;;;4994404;28;20026;-53
2022/08/29 08:27:36;;;;;;;2.65;0.90;;;;;;;;;;4994200;28;20122;-57
2022/08/29 08:30:03;;;;;;;3.45;1.15;;;;;;;;;;4994320;28;20029;-56
2022/08/29 08:32:30;;;;;;;3.95;1.00;;;;;;;;;;4994279;28;20023;-56
2022/08/29 08:34:57;;;;;;;5.55;1.15;;;;;;;;;;4993940;28;20081;-57
2022/08/29 08:37:24;;;;;;;3.53;1.10;;;;;;;;;;4993932;28;20026;-56
2022/08/29 08:39:55;;;;;;;5.28;1.17;;;;;;;;;;4994031;28;20033;-56
2022/08/29 08:42:43;;;;;;;2.25;1.30;;;;;;;;;;4994010;28;20030;-58
2022/08/29 08:45:13;;;;;;;5.22;1.42;;;;;;;;;;4994039;28;20503;-57
2022/08/29 08:47:43;;;;;;;4.90;1.25;;;;;;;;;;4993656;28;20026;-55
2022/08/29 08:50:24;;;;;;;5.32;1.38;;;;;;;;;;4993894;28;20027;-58
2022/08/29 08:53:06;;;;;;;6.15;1.00;;;;;;;;;;4993712;28;20049;-56
2022/08/29 08:55:38;;;;;;;4.13;1.13;;;;;;;;;;4993254;28;20053;-57
2022/08/29 08:58:23;;;;;;;3.97;0.90;;;;;;;;;;4993345;28;20041;-56
2022/08/29 09:00:57;;;;;;;4.15;1.25;;;;;;;;;;4993233;28;20546;-54
2022/08/29 09:03:42;;;;;;;3.95;1.00;;;;;;;;;;4993699;28;20030;-55
2022/08/29 09:06:18;;;;;;;3.15;0.95;;;;;;;;;;4993506;28;20034;-58
2022/08/29 09:08:48;;;;;;;4.85;0.80;;;;;;;;;;4993684;28;20476;-56
2022/08/29 09:11:19;;;;;;;4.03;1.20;;;;;;;;;;4993531;28;20033;-56
2022/08/29 09:13:46;;;;;;;7.35;1.20;;;;;;;;;;4993566;28;20507;-56
2022/08/29 09:16:29;;;;;;;3.60;1.13;;;;;;;;;;4993572;28;20034;-58
2022/08/29 09:19:00;;;;;;;4.65;1.00;;;;;;;;;;4993400;28;20039;-57
2022/08/29 09:21:27;;;;;;;2.53;0.77;;;;;;;;;;4993174;28;20506;-53
2022/08/29 09:23:58;;;;;;;1.85;0.60;;;;;;;;;;4993310;28;20111;-57
2022/08/29 09:26:26;;;;;;;2.00;0.70;;;;;;;;;;4993476;28;20544;-57
2022/08/29 09:28:53;;;;;;;4.10;0.93;;;;;;;;;;4993428;28;20384;-57
2022/08/29 09:31:22;;;;;;;5.15;1.23;;;;;;;;;;4993261;28;20447;-53
2022/08/29 09:33:54;;;;;;;5.93;0.90;;;;;;;;;;4993358;28;20050;-53
2022/08/29 09:36:36;;;;;;;3.63;1.05;;;;;;;;;;4992820;28;20383;-57
2022/08/29 09:39:15;;;;;;;18.50;1.37;;;;;;;;;;4984419;28;20393;-56
2022/08/29 09:41:43;;;;;;;6.38;1.20;;;;;;;;;;4982665;28;20374;-56
2022/08/29 09:44:15;;;;;;;6.82;1.05;;;;;;;;;;4982021;28;20077;-57
2022/08/29 09:46:42;;;;;;;7.80;1.23;;;;;;;;;;4964505;28;20023;-56
2022/08/29 09:49:17;;;;;;;6.90;1.00;;;;;;;;;;4984575;28;20392;-55
2022/08/29 09:51:47;;;;;;;6.53;0.90;;;;;;;;;;4985661;28;20128;-55
2022/08/29 09:54:23;;;;;;;6.13;1.15;;;;;;;;;;4993253;28;20380;-55
2022/08/29 09:57:01;;;;;;;8.38;1.10;;;;;;;;;;4993148;28;20039;-54
2022/08/29 09:59:28;;;;;;;5.20;1.23;;;;;;;;;;4992986;28;20033;-54
2022/08/29 10:02:13;;;;;;;8.57;1.30;;;;;;;;;;4992945;28;20452;-57
2022/08/29 10:04:41;;;;;;;8.23;1.05;;;;;;;;;;4992985;28;20026;-55
2022/08/29 10:07:19;;;;;;;5.75;1.35;;;;;;;;;;4992922;28;20065;-55
2022/08/29 10:09:56;;;;;;;11.52;1.60;;;;;;;;;;4992940;28;20121;-57
2022/08/29 10:12:52;;;;;;;10.23;1.63;;;;;;;;;;4992758;28;20101;-57
2022/08/29 10:15:23;;;;;;;9.55;1.63;;;;;;;;;;4972473;28;20037;-57
2022/08/29 10:20:51;;;;;;;13.85;1.92;;;;;;;;;;4992496;28;20539;-55
2022/08/29 10:23:26;;;;;;;6.80;1.48;;;;;;;;;;4992742;28;20118;-56
2022/08/29 10:25:54;;;;;;;11.15;1.42;;;;;;;;;;4992682;28;20061;-55
2022/08/29 10:28:29;;;;;;;10.00;1.77;;;;;;;;;;4992751;28;20524;-55
2022/08/29 10:30:59;;;;;;;13.52;1.75;;;;;;;;;;4992610;28;20042;-58
2022/08/29 10:33:39;;;;;;;11.90;2.00;;;;;;;;;;4992768;28;20026;-56
2022/08/29 10:36:06;;;;;;;15.57;1.95;;;;;;;;;;4992442;28;20476;-55
2022/08/29 10:38:33;;;;;;;10.73;1.58;;;;;;;;;;4992596;28;20019;-52
2022/08/29 10:41:06;;;;;;;10.30;1.70;;;;;;;;;;4992552;28;20034;-54
2022/08/29 10:43:54;;;;;;;14.75;1.98;;;;;;;;;;4992669;28;20504;-55
2022/08/29 10:46:32;;;;;;;10.60;1.65;;;;;;;;;;4992525;28;20029;-57
2022/08/29 10:48:58;;;;;;;10.95;1.50;;;;;;;;;;4992531;28;20022;-57
2022/08/29 10:51:45;;;;;;;7.65;1.67;;;;;;;;;;4992556;28;20441;-55
2022/08/29 10:54:32;;;;;;;16.13;2.15;;;;;;;;;;4943688;28;20046;-58
2022/08/29 10:57:00;;;;;;;19.92;2.28;;;;;;;;;;4993779;28;20026;-57
2022/08/29 10:59:27;;;;;;;18.02;2.13;;;;;;;;;;4995952;28;20034;-57
2022/08/29 11:01:59;;;;;;;13.40;2.17;;;;;;;;;;4984082;28;20043;-55
2022/08/29 11:04:45;;;;;;;13.43;1.90;;;;;;;;;;4977718;28;20026;-57
2022/08/29 11:07:12;;;;;;;20.83;2.13;;;;;;;;;;4976361;28;20437;-57
2022/08/29 11:09:43;;;;;;;21.90;2.67;;;;;;;;;;4976243;28;20031;-54
2022/08/29 11:12:28;;;;;;;18.42;2.20;;;;;;;;;;4976350;28;20110;-54
2022/08/29 11:14:55;;;;;;;18.90;2.67;;;;;;;;;;4958746;28;20523;-49
2022/08/29 11:17:25;;;;;;;18.02;2.65;;;;;;;;;;4976127;28;20034;-52
2022/08/29 11:19:57;;;;;;;23.75;2.35;;;;;;;;;;4979460;28;20444;-55
2022/08/29 11:22:39;;;;;;;19.92;2.35;;;;;;;;;;4993330;28;20042;-56
2022/08/29 11:25:17;;;;;;;20.57;3.00;;;;;;;;;;4995047;28;20031;-59
2022/08/29 11:27:53;;;;;;;15.10;2.95;;;;;;;;;;4994337;28;20389;-59
2022/08/29 11:30:20;;;;;;;15.30;2.67;;;;;;;;;;4986788;28;20027;-50
2022/08/29 11:32:53;;;;;;;17.67;2.70;;;;;;;;;;4978929;28;20481;-53
2022/08/29 11:35:23;;;;;;;23.38;2.83;;;;;;;;;;4980059;28;20497;-53
2022/08/29 11:37:50;;;;;;;23.95;2.85;;;;;;;;;;4976628;28;20057;-50
2022/08/29 11:40:42;;;;;;;14.30;2.58;;;;;;;;;;4983873;28;20054;-54
2022/08/29 11:43:12;;;;;;;17.80;3.05;;;;;;;;;;4986287;28;20026;-56
2022/08/29 11:45:41;;;;;;;25.55;3.00;;;;;;;;;;4993852;28;20061;-59
2022/08/29 11:48:30;;;;;;;23.40;2.88;;;;;;;;;;4974448;28;20066;-58
2022/08/29 11:50:58;;;;;;;25.50;3.00;;;;;;;;;;4975581;28;20031;-57
2022/08/29 11:53:34;;;;;;;15.88;2.65;;;;;;;;;;4974111;28;20064;-59
2022/08/29 11:56:20;;;;;;;30.38;3.55;;;;;;;;;;4974645;28;20520;-58
2022/08/29 11:58:48;;;;;;;24.70;3.25;;;;;;;;;;4973703;28;20027;-57
2022/08/29 12:01:24;;;;;;;27.30;3.50;;;;;;;;;;4984647;28;20038;-58
2022/08/29 12:03:53;;;;;;;30.65;3.80;;;;;;;;;;4976199;28;20373;-57
2022/08/29 12:06:31;;;;;;;40.25;3.58;;;;;;;;;;4993963;28;20038;-55
2022/08/29 12:09:08;;;;;;;39.38;4.15;;;;;;;;;;4993157;28;20030;-55
2022/08/29 12:11:53;;;;;;;26.05;3.25;;;;;;;;;;4993729;28;20066;-55
2022/08/29 12:14:39;;;;;;;26.35;3.25;;;;;;;;;;4993669;28;20057;-55
2022/08/29 12:17:28;;;;;;;25.50;3.08;;;;;;;;;;4993838;28;20408;-55
2022/08/29 12:20:06;;;;;;;25.33;3.25;;;;;;;;;;4978621;28;20062;-54
2022/08/29 12:22:45;;;;;;;25.48;3.15;;;;;;;;;;4994316;28;20046;-55
2022/08/29 12:25:29;;;;;;;26.40;3.17;;;;;;;;;;4993773;28;20058;-58
2022/08/29 12:28:22;;;;;;;31.90;3.80;;;;;;;;;;4984842;28;20459;-55
2022/08/29 12:30:49;;;;;;;;;;;;;;;;;;4982953;28;20173;-55
2022/08/29 12:33:35;;;;;;;32.40;3.83;;;;;;;;;;4984796;28;20371;-52
2022/08/29 12:36:02;;;;;;;19.10;3.00;;;;;;;;;;4982136;28;20125;-58
2022/08/29 12:38:39;;;;;;;21.10;3.03;;;;;;;;;;4974671;28;20027;-51
2022/08/29 12:41:10;;;;;;;19.20;3.05;;;;;;;;;;4974550;28;20034;-50
2022/08/29 12:43:42;;;;;;;23.65;3.08;;;;;;;;;;4974522;28;20110;-50
2022/08/29 12:46:32;;;;;;;26.23;3.88;;;;;;;;;;4974500;28;20027;-53
2022/08/29 12:49:08;;;;;;;26.27;3.22;;;;;;;;;;4974469;28;20495;-48
2022/08/29 12:51:37;;;;;;;23.48;2.42;;;;;;;;;;4984775;28;20034;-50
2022/08/29 12:54:05;;;;;;;19.08;2.92;;;;;;;;;;4993629;28;20106;-49
2022/08/29 12:56:32;;;;;;;26.13;3.55;;;;;;;;;;4993758;28;20029;-56
2022/08/29 12:59:00;;;;;;;28.98;2.88;;;;;;;;;;4993802;28;20042;-51
2022/08/29 13:01:30;;;;;;;21.63;3.15;;;;;;;;;;4985704;28;20492;-53
2022/08/29 13:04:06;;;;;;;26.60;3.60;;;;;;;;;;4978143;28;20038;-48
2022/08/29 13:06:33;;;;;;;22.45;2.92;;;;;;;;;;4974112;28;20030;-50
2022/08/29 13:09:01;;;;;;;30.33;3.30;;;;;;;;;;4966807;28;20034;-53
2022/08/29 13:11:29;;;;;;;25.38;3.60;;;;;;;;;;4993485;28;20041;-47
2022/08/29 13:14:11;;;;;;;28.80;3.53;;;;;;;;;;4988858;28;20555;-49
2022/08/29 13:16:39;;;;;;;41.40;3.70;;;;;;;;;;4993358;28;20053;-49
2022/08/29 13:19:18;;;;;;;31.77;3.70;;;;;;;;;;4978760;28;20035;-53
2022/08/29 13:21:45;;;;;;;27.33;4.30;;;;;;;;;;4988008;28;20503;-48
2022/08/29 13:24:18;;;;;;;35.03;4.18;;;;;;;;;;4993356;28;20026;-49
2022/08/29 13:26:56;;;;;;;30.40;4.05;;;;;;;;;;4993347;28;20034;-49
2022/08/29 13:29:28;;;;;;;36.85;4.47;;;;;;;;;;4993201;28;20034;-48
2022/08/29 13:32:13;;;;;;;33.47;3.83;;;;;;;;;;4993447;28;20034;-50
2022/08/29 13:34:58;;;;;;;32.08;3.55;;;;;;;;;;4993461;28;20484;-48
2022/08/29 13:37:30;;;;;;;29.45;4.18;;;;;;;;;;4993371;28;20033;-49
2022/08/29 13:39:57;;;;;;;55.88;6.13;;;;;;;;;;4988121;28;20044;-47
2022/08/29 13:42:28;;;;;;;42.45;5.35;;;;;;;;;;4992557;28;20038;-46
2022/08/29 13:45:01;;;;;;;33.63;4.03;;;;;;;;;;4992530;28;20030;-45
2022/08/29 13:47:33;;;;;;;46.17;4.95;;;;;;;;;;4992865;28;20400;-45
2022/08/29 13:50:05;;;;;;;48.63;5.40;;;;;;;;;;4991862;28;20034;-44
2022/08/29 13:52:32;;;;;;;38.38;4.88;;;;;;;;;;4992449;28;20035;-48
2022/08/29 13:55:00;;;;;;;45.03;5.25;;;;;;;;;;4992446;28;20109;-44
2022/08/29 13:57:30;;;;;;;36.65;4.80;;;;;;;;;;4992739;28;20117;-47
2022/08/29 14:00:01;;;;;;;38.20;4.70;;;;;;;;;;4992844;28;20038;-45
2022/08/29 14:02:29;;;;;;;44.53;4.72;;;;;;;;;;4991984;28;20031;-45
2022/08/29 14:04:56;;;;;;;43.03;5.72;;;;;;;;;;4991859;28;20536;-46
2022/08/29 14:07:25;;;;;;;55.47;5.40;;;;;;;;;;4992067;28;20030;-45
2022/08/29 14:09:53;;;;;;;49.28;5.65;;;;;;;;;;4990898;28;20038;-47
2022/08/29 14:12:20;;;;;;;57.13;5.70;;;;;;;;;;4991148;28;20404;-45
2022/08/29 14:14:47;;;;;;;43.88;5.50;;;;;;;;;;4991764;28;20048;-45
2022/08/29 14:17:14;;;;;;;43.55;4.93;;;;;;;;;;4992745;28;20022;-46
2022/08/29 14:19:41;;;;;;;39.25;6.22;;;;;;;;;;4991169;28;20512;-45
2022/08/29 14:22:08;;;;;;;44.13;5.22;;;;;;;;;;4991102;28;20046;-45
2022/08/29 14:24:36;;;;;;;42.88;6.15;;;;;;;;;;4991695;28;20097;-44
2022/08/29 14:27:03;;;;;;;45.88;5.53;;;;;;;;;;4992317;28;20089;-45
2022/08/29 14:29:31;;;;;;;40.95;5.97;;;;;;;;;;4992640;28;20035;-45
2022/08/29 14:31:58;;;;;;;50.30;5.63;;;;;;;;;;4993272;28;20030;-51
2022/08/29 14:34:26;;;;;;;53.80;6.55;;;;;;;;;;4994960;28;20407;-44
2022/08/29 14:36:53;;;;;;;45.38;5.53;;;;;;;;;;4996175;28;20488;-46
2022/08/29 14:39:20;;;;;;;43.28;5.53;;;;;;;;;;4996098;28;20476;-46
2022/08/29 14:41:47;;;;;;;54.90;6.13;;;;;;;;;;4995959;28;20073;-45
2022/08/29 14:44:14;;;;;;;48.03;6.07;;;;;;;;;;4994399;28;20515;-43
2022/08/29 14:46:41;;;;;;;41.17;5.93;;;;;;;;;;4995727;28;20037;-44
2022/08/29 14:49:07;;;;;;;43.25;6.35;;;;;;;;;;4995872;28;20030;-48
2022/08/29 14:51:34;;;;;;;46.97;7.22;;;;;;;;;;4996143;28;20526;-48
2022/08/29 14:54:01;;;;;;;41.70;6.22;;;;;;;;;;4993778;28;20030;-47
2022/08/29 14:56:30;;;;;;;50.53;6.68;;;;;;;;;;4995994;28;20112;-47
2022/08/29 14:58:58;;;;;;;61.67;7.35;;;;;;;;;;4987925;28;20061;-46